sensor_id;sensor_type;location;lat;lon;timestamp;pressure;altitude;pressure_sealevel;temperature;humidity
78584;BME280;67880;46.082;18.234;2023-11-21T00:00:27;99218.13;;;9.22;100.00
78584;BME280;67880;46.082;18.234;2023-11-21T00:00:59;99218.13;;;9.22;100.00
78584;BME280;67880;46.082;18.234;2023-11-21T00:01:33;99215.09;;;9.26;100.00
78584;BME280;67880;46.082;18.234;2023-11-21T00:02:05;99221.16;;;9.28;100.00
78584;BME280;67880;46.082;18.234;2023-11-21T00:02:37;99210.44;;;9.28;100.00
78584;BME280;67880;46.082;18.234;2023-11-21T00:03:11;99220.81;;;9.31;100.00
78584;BME280;67880;46.082;18.234;2023-11-21T00:03:46;99215.31;;;9.32;100.00
78584;BME280;67880;46.082;18.234;2023-11-21T00:04:18;99224.16;;;9.33;100.00
78584;BME280;67880;46.082;18.234;2023-11-21T00:04:50;99212.97;;;9.29;100.00
78584;BME280;67880;46.082;18.234;2023-11-21T00:05:24;99218.50;;;9.28;100.00
78584;BME280;67880;46.082;18.234;2023-11-21T00:05:56;99214.81;;;9.29;100.00
78584;BME280;67880;46.082;18.234;2023-11-21T00:06:28;99216.31;;;9.31;100.00
78584;BME280;67880;46.082;18.234;2023-11-21T00:07:01;99208.78;;;9.35;99.88
78584;BME280;67880;46.082;18.234;2023-11-21T00:07:33;99213.97;;;9.36;99.75
78584;BME280;67880;46.082;18.234;2023-11-21T00:08:05;99217.50;;;9.37;99.59
78584;BME280;67880;46.082;18.234;2023-11-21T00:08:37;99211.13;;;9.38;99.92
78584;BME280;67880;46.082;18.234;2023-11-21T00:09:09;99217.84;;;9.42;99.67
78584;BME280;67880;46.082;18.234;2023-11-21T00:09:43;99208.97;;;9.41;99.47
78584;BME280;67880;46.082;18.234;2023-11-21T00:10:15;99217.84;;;9.42;99.28
78584;BME280;67880;46.082;18.234;2023-11-21T00:10:48;99210.47;;;9.44;99.46
78584;BME280;67880;46.082;18.234;2023-11-21T00:11:20;99210.31;;;9.45;99.10
78584;BME280;67880;46.082;18.234;2023-11-21T00:11:52;99210.19;;;9.47;99.35
78584;BME280;67880;46.082;18.234;2023-11-21T00:12:24;99207.50;;;9.47;98.68
78584;BME280;67880;46.082;18.234;2023-11-21T00:12:56;99210.84;;;9.49;98.65
78584;BME280;67880;46.082;18.234;2023-11-21T00:13:28;99208.00;;;9.50;98.30
78584;BME280;67880;46.082;18.234;2023-11-21T00:14:00;99211.34;;;9.53;98.11
78584;BME280;67880;46.082;18.234;2023-11-21T00:14:32;99208.53;;;9.54;97.88
78584;BME280;67880;46.082;18.234;2023-11-21T00:15:05;99216.22;;;9.57;97.82
78584;BME280;67880;46.082;18.234;2023-11-21T00:15:37;99208.84;;;9.59;97.86
78584;BME280;67880;46.082;18.234;2023-11-21T00:16:09;99199.81;;;9.60;97.27
78584;BME280;67880;46.082;18.234;2023-11-21T00:16:41;99206.69;;;9.63;96.83
78584;BME280;67880;46.082;18.234;2023-11-21T00:17:13;99218.59;;;9.68;96.66
78584;BME280;67880;46.082;18.234;2023-11-21T00:17:45;99212.06;;;9.71;96.56
78584;BME280;67880;46.082;18.234;2023-11-21T00:18:18;99212.75;;;9.73;96.30
78584;BME280;67880;46.082;18.234;2023-11-21T00:18:50;99203.53;;;9.75;96.34
78584;BME280;67880;46.082;18.234;2023-11-21T00:19:22;99209.56;;;9.77;96.21
78584;BME280;67880;46.082;18.234;2023-11-21T00:19:54;99215.25;;;9.83;95.60
78584;BME280;67880;46.082;18.234;2023-11-21T00:20:26;99212.41;;;9.84;95.82
78584;BME280;67880;46.082;18.234;2023-11-21T00:20:59;99216.63;;;9.87;95.24
78584;BME280;67880;46.082;18.234;2023-11-21T00:21:31;99210.25;;;9.88;95.75
78584;BME280;67880;46.082;18.234;2023-11-21T00:22:03;99218.94;;;9.90;95.62
78584;BME280;67880;46.082;18.234;2023-11-21T00:22:35;99213.41;;;9.91;95.31
78584;BME280;67880;46.082;18.234;2023-11-21T00:23:07;99211.59;;;9.92;95.65
78584;BME280;67880;46.082;18.234;2023-11-21T00:23:41;99210.72;;;9.91;95.46
78584;BME280;67880;46.082;18.234;2023-11-21T00:24:13;99215.13;;;9.92;95.11
78584;BME280;67880;46.082;18.234;2023-11-21T00:24:46;99212.09;;;9.95;95.00
78584;BME280;67880;46.082;18.234;2023-11-21T00:25:18;99217.28;;;9.97;95.14
78584;BME280;67880;46.082;18.234;2023-11-21T00:25:50;99214.47;;;9.98;95.14
78584;BME280;67880;46.082;18.234;2023-11-21T00:26:22;99204.56;;;9.99;94.67
78584;BME280;67880;46.082;18.234;2023-11-21T00:26:54;99211.25;;;10.03;94.85
78584;BME280;67880;46.082;18.234;2023-11-21T00:27:25;99212.25;;;10.02;94.98
78584;BME280;67880;46.082;18.234;2023-11-21T00:27:57;99211.44;;;10.01;95.05
78584;BME280;67880;46.082;18.234;2023-11-21T00:28:29;99218.16;;;10.06;95.02
78584;BME280;67880;46.082;18.234;2023-11-21T00:29:01;99206.72;;;10.03;95.12
78584;BME280;67880;46.082;18.234;2023-11-21T00:29:33;99213.63;;;10.06;94.91
78584;BME280;67880;46.082;18.234;2023-11-21T00:30:06;99208.91;;;10.08;94.75
78584;BME280;67880;46.082;18.234;2023-11-21T00:30:38;99209.94;;;10.07;94.91
78584;BME280;67880;46.082;18.234;2023-11-21T00:31:10;99213.63;;;10.06;95.47
78584;BME280;67880;46.082;18.234;2023-11-21T00:31:43;99214.28;;;10.08;94.99
78584;BME280;67880;46.082;18.234;2023-11-21T00:32:16;99208.25;;;10.06;95.08
78584;BME280;67880;46.082;18.234;2023-11-21T00:32:48;99215.47;;;10.06;95.26
78584;BME280;67880;46.082;18.234;2023-11-21T00:33:19;99209.25;;;10.05;94.94
78584;BME280;67880;46.082;18.234;2023-11-21T00:33:51;99208.75;;;10.10;94.92
78584;BME280;67880;46.082;18.234;2023-11-21T00:34:24;99214.94;;;10.10;94.80
78584;BME280;67880;46.082;18.234;2023-11-21T00:34:55;99205.56;;;10.06;94.60
78584;BME280;67880;46.082;18.234;2023-11-21T00:35:27;99206.41;;;10.07;94.72
78584;BME280;67880;46.082;18.234;2023-11-21T00:35:59;99201.88;;;10.07;94.97
78584;BME280;67880;46.082;18.234;2023-11-21T00:36:32;99208.09;;;10.08;94.64
78584;BME280;67880;46.082;18.234;2023-11-21T00:37:04;99204.06;;;10.12;94.82
78584;BME280;67880;46.082;18.234;2023-11-21T00:37:36;99204.25;;;10.18;94.46
78584;BME280;67880;46.082;18.234;2023-11-21T00:38:08;99204.72;;;10.22;94.01
78584;BME280;67880;46.082;18.234;2023-11-21T00:38:40;99201.91;;;10.23;94.21
78584;BME280;67880;46.082;18.234;2023-11-21T00:39:12;99201.22;;;10.21;94.37
78584;BME280;67880;46.082;18.234;2023-11-21T00:39:44;99204.06;;;10.20;94.58
78584;BME280;67880;46.082;18.234;2023-11-21T00:40:16;99204.72;;;10.22;94.26
78584;BME280;67880;46.082;18.234;2023-11-21T00:40:53;99204.91;;;10.20;94.23
78584;BME280;67880;46.082;18.234;2023-11-21T00:41:28;99200.53;;;10.19;94.05
78584;BME280;67880;46.082;18.234;2023-11-21T00:42:00;99211.78;;;10.23;94.27
78584;BME280;67880;46.082;18.234;2023-11-21T00:42:32;99199.06;;;10.25;93.80
78584;BME280;67880;46.082;18.234;2023-11-21T00:43:05;99205.28;;;10.25;93.62
78584;BME280;67880;46.082;18.234;2023-11-21T00:43:37;99208.78;;;10.26;93.80
78584;BME280;67880;46.082;18.234;2023-11-21T00:44:09;99205.41;;;10.24;93.98
78584;BME280;67880;46.082;18.234;2023-11-21T00:44:42;99201.91;;;10.23;93.95
78584;BME280;67880;46.082;18.234;2023-11-21T00:45:14;99200.75;;;10.26;93.64
78584;BME280;67880;46.082;18.234;2023-11-21T00:45:46;99192.50;;;10.27;94.04
78584;BME280;67880;46.082;18.234;2023-11-21T00:46:21;99209.44;;;10.28;93.65
78584;BME280;67880;46.082;18.234;2023-11-21T00:46:53;99214.50;;;10.31;94.14
78584;BME280;67880;46.082;18.234;2023-11-21T00:47:26;99204.59;;;10.32;93.59
78584;BME280;67880;46.082;18.234;2023-11-21T00:47:58;99214.13;;;10.34;93.64
78584;BME280;67880;46.082;18.234;2023-11-21T00:48:30;99202.22;;;10.28;93.59
78584;BME280;67880;46.082;18.234;2023-11-21T00:49:02;99212.47;;;10.25;94.10
78584;BME280;67880;46.082;18.234;2023-11-21T00:49:35;99208.41;;;10.21;94.13
78584;BME280;67880;46.082;18.234;2023-11-21T00:50:08;99202.59;;;10.25;94.21
78584;BME280;67880;46.082;18.234;2023-11-21T00:50:41;99200.19;;;10.22;93.86
78584;BME280;67880;46.082;18.234;2023-11-21T00:51:13;99200.38;;;10.21;94.24
78584;BME280;67880;46.082;18.234;2023-11-21T00:51:45;99201.56;;;10.18;94.53
78584;BME280;67880;46.082;18.234;2023-11-21T00:52:17;99199.38;;;10.14;94.32
78584;BME280;67880;46.082;18.234;2023-11-21T00:52:49;99201.88;;;10.15;94.65
78584;BME280;67880;46.082;18.234;2023-11-21T00:53:23;99195.84;;;10.13;94.65
78584;BME280;67880;46.082;18.234;2023-11-21T00:53:55;99195.69;;;10.15;94.89
78584;BME280;67880;46.082;18.234;2023-11-21T00:54:27;99194.19;;;10.12;94.88
78584;BME280;67880;46.082;18.234;2023-11-21T00:54:59;99196.84;;;10.12;95.05
78584;BME280;67880;46.082;18.234;2023-11-21T00:55:31;99194.31;;;10.11;94.94
78584;BME280;67880;46.082;18.234;2023-11-21T00:56:04;99199.19;;;10.07;95.26
78584;BME280;67880;46.082;18.234;2023-11-21T00:56:36;99197.53;;;10.06;95.62
78584;BME280;67880;46.082;18.234;2023-11-21T00:57:08;99195.19;;;10.11;95.30
78584;BME280;67880;46.082;18.234;2023-11-21T00:57:40;99187.97;;;10.12;95.17
78584;BME280;67880;46.082;18.234;2023-11-21T00:58:12;99189.66;;;10.13;95.24
78584;BME280;67880;46.082;18.234;2023-11-21T00:58:44;99199.72;;;10.19;94.61
78584;BME280;67880;46.082;18.234;2023-11-21T00:59:22;99195.50;;;10.16;94.73
78584;BME280;67880;46.082;18.234;2023-11-21T00:59:55;99204.25;;;10.18;94.36
78584;BME280;67880;46.082;18.234;2023-11-21T01:00:27;99199.22;;;10.23;94.00
78584;BME280;67880;46.082;18.234;2023-11-21T01:00:59;99195.50;;;10.16;94.65
78584;BME280;67880;46.082;18.234;2023-11-21T01:01:31;99194.34;;;10.19;94.76
78584;BME280;67880;46.082;18.234;2023-11-21T01:02:03;99195.00;;;10.21;94.70
78584;BME280;67880;46.082;18.234;2023-11-21T01:02:36;99192.31;;;10.21;94.72
78584;BME280;67880;46.082;18.234;2023-11-21T01:03:08;99193.84;;;10.23;94.89
78584;BME280;67880;46.082;18.234;2023-11-21T01:03:41;99196.53;;;10.23;95.15
78584;BME280;67880;46.082;18.234;2023-11-21T01:04:13;99193.84;;;10.23;95.10
78584;BME280;67880;46.082;18.234;2023-11-21T01:04:45;99200.91;;;10.24;95.10
78584;BME280;67880;46.082;18.234;2023-11-21T01:05:17;99192.00;;;10.24;94.96
78584;BME280;67880;46.082;18.234;2023-11-21T01:05:49;99192.31;;;10.21;95.10
78584;BME280;67880;46.082;18.234;2023-11-21T01:06:21;99187.63;;;10.15;95.26
78584;BME280;67880;46.082;18.234;2023-11-21T01:06:53;99192.16;;;10.14;95.11
78584;BME280;67880;46.082;18.234;2023-11-21T01:07:25;99190.13;;;10.16;95.62
78584;BME280;67880;46.082;18.234;2023-11-21T01:07:58;99187.97;;;10.20;95.12
78584;BME280;67880;46.082;18.234;2023-11-21T01:08:31;99184.09;;;10.22;94.99
78584;BME280;67880;46.082;18.234;2023-11-21T01:09:03;99189.63;;;10.21;95.14
78584;BME280;67880;46.082;18.234;2023-11-21T01:09:39;99190.31;;;10.23;94.92
78584;BME280;67880;46.082;18.234;2023-11-21T01:10:11;99179.44;;;10.24;94.52
78584;BME280;67880;46.082;18.234;2023-11-21T01:10:44;99184.81;;;10.33;93.23
78584;BME280;67880;46.082;18.234;2023-11-21T01:11:17;99171.22;;;10.34;93.25
78584;BME280;67880;46.082;18.234;2023-11-21T01:11:49;99180.09;;;10.35;93.34
78584;BME280;67880;46.082;18.234;2023-11-21T01:12:21;99186.13;;;10.37;93.50
78584;BME280;67880;46.082;18.234;2023-11-21T01:12:53;99175.91;;;10.40;93.11
78584;BME280;67880;46.082;18.234;2023-11-21T01:13:25;99170.34;;;10.42;92.65
78584;BME280;67880;46.082;18.234;2023-11-21T01:14:01;99170.22;;;10.43;92.30
78584;BME280;67880;46.082;18.234;2023-11-21T01:14:35;99176.06;;;10.47;92.49
78584;BME280;67880;46.082;18.234;2023-11-21T01:15:08;99175.03;;;10.48;91.86
78584;BME280;67880;46.082;18.234;2023-11-21T01:15:40;99175.72;;;10.50;91.68
78584;BME280;67880;46.082;18.234;2023-11-21T01:16:13;99176.38;;;10.52;91.73
78584;BME280;67880;46.082;18.234;2023-11-21T01:16:45;99172.50;;;10.54;91.39
78584;BME280;67880;46.082;18.234;2023-11-21T01:17:17;99171.50;;;10.55;92.08
78584;BME280;67880;46.082;18.234;2023-11-21T01:17:50;99175.19;;;10.54;92.23
78584;BME280;67880;46.082;18.234;2023-11-21T01:18:22;99177.03;;;10.54;91.88
78584;BME280;67880;46.082;18.234;2023-11-21T01:18:57;99181.41;;;10.55;92.17
78584;BME280;67880;46.082;18.234;2023-11-21T01:19:29;99176.03;;;10.55;92.07
78584;BME280;67880;46.082;18.234;2023-11-21T01:20:02;99179.41;;;10.57;91.93
78584;BME280;67880;46.082;18.234;2023-11-21T01:20:35;99179.41;;;10.57;91.84
78584;BME280;67880;46.082;18.234;2023-11-21T01:21:07;99175.88;;;10.56;91.79
78584;BME280;67880;46.082;18.234;2023-11-21T01:21:40;99176.03;;;10.55;91.92
78584;BME280;67880;46.082;18.234;2023-11-21T01:22:12;99170.38;;;10.50;92.25
78584;BME280;67880;46.082;18.234;2023-11-21T01:22:44;99175.19;;;10.54;92.13
78584;BME280;67880;46.082;18.234;2023-11-21T01:23:16;99170.66;;;10.55;92.05
78584;BME280;67880;46.082;18.234;2023-11-21T01:23:48;99174.03;;;10.57;91.86
78584;BME280;67880;46.082;18.234;2023-11-21T01:24:21;99170.50;;;10.56;91.43
78584;BME280;67880;46.082;18.234;2023-11-21T01:24:53;99167.28;;;10.61;91.11
78584;BME280;67880;46.082;18.234;2023-11-21T01:25:25;99173.34;;;10.63;90.63
78584;BME280;67880;46.082;18.234;2023-11-21T01:25:58;99168.63;;;10.65;90.80
78584;BME280;67880;46.082;18.234;2023-11-21T01:26:30;99168.47;;;10.67;90.72
78584;BME280;67880;46.082;18.234;2023-11-21T01:27:02;99168.47;;;10.67;91.10
78584;BME280;67880;46.082;18.234;2023-11-21T01:27:36;99170.97;;;10.68;90.72
78584;BME280;67880;46.082;18.234;2023-11-21T01:28:08;99161.25;;;10.67;91.06
78584;BME280;67880;46.082;18.234;2023-11-21T01:28:40;99168.13;;;10.70;90.47
78584;BME280;67880;46.082;18.234;2023-11-21T01:29:13;99166.09;;;10.72;90.15
78584;BME280;67880;46.082;18.234;2023-11-21T01:29:45;99164.63;;;10.69;90.48
78584;BME280;67880;46.082;18.234;2023-11-21T01:30:18;99165.59;;;10.68;90.25
78584;BME280;67880;46.082;18.234;2023-11-21T01:30:50;99170.47;;;10.73;89.94
78584;BME280;67880;46.082;18.234;2023-11-21T01:31:22;99166.59;;;10.75;89.48
78584;BME280;67880;46.082;18.234;2023-11-21T01:31:54;99162.91;;;10.76;89.63
78584;BME280;67880;46.082;18.234;2023-11-21T01:32:26;99169.94;;;10.77;89.65
78584;BME280;67880;46.082;18.234;2023-11-21T01:32:58;99162.72;;;10.78;89.52
78584;BME280;67880;46.082;18.234;2023-11-21T01:33:31;99158.19;;;10.78;89.08
78584;BME280;67880;46.082;18.234;2023-11-21T01:34:03;99160.38;;;10.83;88.88
78584;BME280;67880;46.082;18.234;2023-11-21T01:34:35;99159.34;;;10.84;89.16
78584;BME280;67880;46.082;18.234;2023-11-21T01:35:07;99159.34;;;10.84;89.49
78584;BME280;67880;46.082;18.234;2023-11-21T01:35:39;99159.53;;;10.82;88.75
78584;BME280;67880;46.082;18.234;2023-11-21T01:36:11;99158.53;;;10.83;88.88
78584;BME280;67880;46.082;18.234;2023-11-21T01:36:45;99158.53;;;10.83;88.99
78584;BME280;67880;46.082;18.234;2023-11-21T01:37:17;99151.31;;;10.84;88.84
78584;BME280;67880;46.082;18.234;2023-11-21T01:37:49;99151.97;;;10.86;88.54
78584;BME280;67880;46.082;18.234;2023-11-21T01:38:21;99145.56;;;10.87;88.47
78584;BME280;67880;46.082;18.234;2023-11-21T01:38:53;99148.25;;;10.87;88.29
78584;BME280;67880;46.082;18.234;2023-11-21T01:39:26;99145.25;;;10.90;88.21
78584;BME280;67880;46.082;18.234;2023-11-21T01:39:59;99142.38;;;10.92;88.37
78584;BME280;67880;46.082;18.234;2023-11-21T01:40:31;99143.38;;;10.91;88.32
78584;BME280;67880;46.082;18.234;2023-11-21T01:41:03;99146.06;;;10.91;87.92
78584;BME280;67880;46.082;18.234;2023-11-21T01:41:36;99139.69;;;10.92;87.90
78584;BME280;67880;46.082;18.234;2023-11-21T01:42:08;99139.69;;;10.92;87.51
78584;BME280;67880;46.082;18.234;2023-11-21T01:42:41;99142.88;;;10.95;87.49
78584;BME280;67880;46.082;18.234;2023-11-21T01:43:15;99134.97;;;10.94;87.04
78584;BME280;67880;46.082;18.234;2023-11-21T01:43:47;99139.31;;;10.95;86.95
78584;BME280;67880;46.082;18.234;2023-11-21T01:44:19;99134.44;;;10.98;86.64
78584;BME280;67880;46.082;18.234;2023-11-21T01:44:51;99143.00;;;11.02;86.74
78584;BME280;67880;46.082;18.234;2023-11-21T01:45:23;99132.41;;;11.00;86.62
78584;BME280;67880;46.082;18.234;2023-11-21T01:45:57;99123.53;;;11.00;86.38
78584;BME280;67880;46.082;18.234;2023-11-21T01:46:30;99134.59;;;11.05;86.10
78584;BME280;67880;46.082;18.234;2023-11-21T01:47:02;99136.25;;;11.06;86.52
78584;BME280;67880;46.082;18.234;2023-11-21T01:47:36;99126.53;;;11.05;86.37
78584;BME280;67880;46.082;18.234;2023-11-21T01:48:09;99135.41;;;11.05;86.56
78584;BME280;67880;46.082;18.234;2023-11-21T01:48:42;99129.41;;;11.03;86.48
78584;BME280;67880;46.082;18.234;2023-11-21T01:49:14;99132.91;;;11.04;86.64
78584;BME280;67880;46.082;18.234;2023-11-21T01:49:47;99127.72;;;11.02;86.38
78584;BME280;67880;46.082;18.234;2023-11-21T01:50:20;99128.56;;;11.03;86.34
78584;BME280;67880;46.082;18.234;2023-11-21T01:50:53;99130.56;;;11.01;86.19
78584;BME280;67880;46.082;18.234;2023-11-21T01:51:25;99126.72;;;11.03;86.29
78584;BME280;67880;46.082;18.234;2023-11-21T01:51:58;99122.81;;;11.06;85.93
78584;BME280;67880;46.082;18.234;2023-11-21T01:52:30;99136.25;;;11.06;85.77
78584;BME280;67880;46.082;18.234;2023-11-21T01:53:03;99135.25;;;11.07;85.92
78584;BME280;67880;46.082;18.234;2023-11-21T01:53:35;99128.56;;;11.03;86.06
78584;BME280;67880;46.082;18.234;2023-11-21T01:54:08;99133.94;;;11.03;86.05
78584;BME280;67880;46.082;18.234;2023-11-21T01:54:48;99132.56;;;11.07;86.22
78584;BME280;67880;46.082;18.234;2023-11-21T01:55:21;99136.44;;;11.04;86.06
78584;BME280;67880;46.082;18.234;2023-11-21T01:55:56;99132.75;;;11.05;85.94
78584;BME280;67880;46.082;18.234;2023-11-21T01:56:29;99125.88;;;11.03;85.88
78584;BME280;67880;46.082;18.234;2023-11-21T01:57:04;99132.09;;;11.03;85.66
78584;BME280;67880;46.082;18.234;2023-11-21T01:57:38;99138.94;;;11.06;85.62
78584;BME280;67880;46.082;18.234;2023-11-21T01:58:11;99136.56;;;11.11;85.40
78584;BME280;67880;46.082;18.234;2023-11-21T01:58:45;99137.59;;;11.10;84.72
78584;BME280;67880;46.082;18.234;2023-11-21T01:59:20;99136.22;;;11.14;84.43
78584;BME280;67880;46.082;18.234;2023-11-21T01:59:56;99128.16;;;11.14;84.47
78584;BME280;67880;46.082;18.234;2023-11-21T02:00:30;99130.50;;;11.17;84.40
78584;BME280;67880;46.082;18.234;2023-11-21T02:01:03;99129.47;;;11.18;84.64
78584;BME280;67880;46.082;18.234;2023-11-21T02:01:35;99131.16;;;11.19;84.68
78584;BME280;67880;46.082;18.234;2023-11-21T02:02:08;99128.47;;;11.19;84.49
78584;BME280;67880;46.082;18.234;2023-11-21T02:02:45;99135.50;;;11.20;84.68
78584;BME280;67880;46.082;18.234;2023-11-21T02:03:17;99128.31;;;11.21;84.88
78584;BME280;67880;46.082;18.234;2023-11-21T02:03:52;99132.66;;;11.22;84.64
78584;BME280;67880;46.082;18.234;2023-11-21T02:04:24;99132.47;;;11.23;84.87
78584;BME280;67880;46.082;18.234;2023-11-21T02:04:57;99124.41;;;11.23;84.85
78584;BME280;67880;46.082;18.234;2023-11-21T02:05:29;99128.31;;;11.21;84.72
78584;BME280;67880;46.082;18.234;2023-11-21T02:06:01;99129.66;;;11.17;85.24
78584;BME280;67880;46.082;18.234;2023-11-21T02:06:33;99129.00;;;11.15;85.46
78584;BME280;67880;46.082;18.234;2023-11-21T02:07:05;99126.84;;;11.10;85.40
78584;BME280;67880;46.082;18.234;2023-11-21T02:07:39;99125.19;;;11.09;86.04
78584;BME280;67880;46.082;18.234;2023-11-21T02:08:11;99126.00;;;11.09;85.38
78584;BME280;67880;46.082;18.234;2023-11-21T02:08:43;99122.31;;;11.10;85.33
78584;BME280;67880;46.082;18.234;2023-11-21T02:09:16;99127.50;;;11.12;85.43
78584;BME280;67880;46.082;18.234;2023-11-21T02:09:49;99129.00;;;11.15;85.18
78584;BME280;67880;46.082;18.234;2023-11-21T02:10:21;99125.00;;;11.10;85.29
78584;BME280;67880;46.082;18.234;2023-11-21T02:10:56;99124.16;;;11.10;84.76
78584;BME280;67880;46.082;18.234;2023-11-21T02:11:29;99128.16;;;11.14;84.48
78584;BME280;67880;46.082;18.234;2023-11-21T02:12:02;99127.16;;;11.15;84.67
78584;BME280;67880;46.082;18.234;2023-11-21T02:12:35;99123.13;;;11.11;85.15
78584;BME280;67880;46.082;18.234;2023-11-21T02:13:06;99125.34;;;11.07;85.40
78584;BME280;67880;46.082;18.234;2023-11-21T02:13:39;99119.13;;;11.07;85.19
78584;BME280;67880;46.082;18.234;2023-11-21T02:14:15;99118.78;;;11.10;85.27
78584;BME280;67880;46.082;18.234;2023-11-21T02:14:46;99127.19;;;11.07;85.35
78584;BME280;67880;46.082;18.234;2023-11-21T02:15:19;99116.94;;;11.10;84.76
78584;BME280;67880;46.082;18.234;2023-11-21T02:15:52;99121.28;;;11.11;85.51
78584;BME280;67880;46.082;18.234;2023-11-21T02:16:26;99125.19;;;11.09;85.67
78584;BME280;67880;46.082;18.234;2023-11-21T02:16:59;99124.16;;;11.10;85.36
78584;BME280;67880;46.082;18.234;2023-11-21T02:17:32;99116.56;;;11.13;85.21
78584;BME280;67880;46.082;18.234;2023-11-21T02:18:05;99117.25;;;11.16;85.33
78584;BME280;67880;46.082;18.234;2023-11-21T02:18:39;99119.09;;;11.15;84.99
78584;BME280;67880;46.082;18.234;2023-11-21T02:19:18;99114.06;;;11.12;84.80
78584;BME280;67880;46.082;18.234;2023-11-21T02:20:02;99117.41;;;11.14;84.57
78584;BME280;67880;46.082;18.234;2023-11-21T02:20:34;99120.97;;;11.15;84.60
78584;BME280;67880;46.082;18.234;2023-11-21T02:21:08;99120.78;;;11.16;84.55
78584;BME280;67880;46.082;18.234;2023-11-21T02:21:42;99116.22;;;11.17;84.42
78584;BME280;67880;46.082;18.234;2023-11-21T02:22:15;99120.78;;;11.16;84.57
78584;BME280;67880;46.082;18.234;2023-11-21T02:22:56;99117.91;;;11.18;84.21
78584;BME280;67880;46.082;18.234;2023-11-21T02:23:31;99119.56;;;11.19;84.37
78584;BME280;67880;46.082;18.234;2023-11-21T02:24:04;99119.56;;;11.19;84.49
78584;BME280;67880;46.082;18.234;2023-11-21T02:24:37;99121.41;;;11.18;84.51
78584;BME280;67880;46.082;18.234;2023-11-21T02:25:09;99114.19;;;11.19;84.56
78584;BME280;67880;46.082;18.234;2023-11-21T02:25:41;99116.22;;;11.17;84.44
78584;BME280;67880;46.082;18.234;2023-11-21T02:26:14;99121.78;;;11.15;84.80
78584;BME280;67880;46.082;18.234;2023-11-21T02:26:49;99119.09;;;11.15;84.61
78584;BME280;67880;46.082;18.234;2023-11-21T02:27:24;99118.28;;;11.15;84.77
78584;BME280;67880;46.082;18.234;2023-11-21T02:27:56;99121.78;;;11.15;84.97
78584;BME280;67880;46.082;18.234;2023-11-21T02:28:29;99121.09;;;11.13;84.72
78584;BME280;67880;46.082;18.234;2023-11-21T02:29:01;99114.06;;;11.12;84.77
78584;BME280;67880;46.082;18.234;2023-11-21T02:29:36;99115.09;;;11.11;84.49
78584;BME280;67880;46.082;18.234;2023-11-21T02:30:08;99125.66;;;11.12;84.05
78584;BME280;67880;46.082;18.234;2023-11-21T02:30:44;99111.56;;;11.10;84.29
78584;BME280;67880;46.082;18.234;2023-11-21T02:31:16;99113.75;;;11.07;84.66
78584;BME280;67880;46.082;18.234;2023-11-21T02:31:51;99124.34;;;11.08;84.41
78584;BME280;67880;46.082;18.234;2023-11-21T02:32:23;99124.16;;;11.10;84.48
78584;BME280;67880;46.082;18.234;2023-11-21T02:32:58;99123.13;;;11.11;84.56
78584;BME280;67880;46.082;18.234;2023-11-21T02:33:30;99123.31;;;11.09;84.08
78584;BME280;67880;46.082;18.234;2023-11-21T02:34:05;99126.84;;;11.10;83.94
78584;BME280;67880;46.082;18.234;2023-11-21T02:34:37;99131.19;;;11.11;83.37
78584;BME280;67880;46.082;18.234;2023-11-21T02:35:09;99128.69;;;11.09;83.75
78584;BME280;67880;46.082;18.234;2023-11-21T02:35:43;99120.81;;;11.08;83.76
78584;BME280;67880;46.082;18.234;2023-11-21T02:36:16;99123.50;;;11.08;83.71
78584;BME280;67880;46.082;18.234;2023-11-21T02:36:49;99122.50;;;11.09;83.94
78584;BME280;67880;46.082;18.234;2023-11-21T02:37:23;99125.19;;;11.09;83.43
78584;BME280;67880;46.082;18.234;2023-11-21T02:37:55;99120.47;;;11.11;83.79
78584;BME280;67880;46.082;18.234;2023-11-21T02:38:27;99117.94;;;11.09;83.53
78584;BME280;67880;46.082;18.234;2023-11-21T02:38:59;99124.16;;;11.10;83.79
78584;BME280;67880;46.082;18.234;2023-11-21T02:39:31;99114.44;;;11.09;83.24
78584;BME280;67880;46.082;18.234;2023-11-21T02:40:04;99123.50;;;11.08;83.73
78584;BME280;67880;46.082;18.234;2023-11-21T02:40:38;99116.09;;;11.10;83.43
78584;BME280;67880;46.082;18.234;2023-11-21T02:41:10;99113.59;;;11.08;84.05
78584;BME280;67880;46.082;18.234;2023-11-21T02:41:43;99118.13;;;11.08;84.03
78584;BME280;67880;46.082;18.234;2023-11-21T02:42:15;99110.72;;;11.10;84.09
78584;BME280;67880;46.082;18.234;2023-11-21T02:42:47;99112.59;;;11.09;83.14
78584;BME280;67880;46.082;18.234;2023-11-21T02:43:19;99112.59;;;11.09;83.88
78584;BME280;67880;46.082;18.234;2023-11-21T02:43:51;99114.44;;;11.09;83.03
78584;BME280;67880;46.082;18.234;2023-11-21T02:44:23;99115.28;;;11.09;83.27
78584;BME280;67880;46.082;18.234;2023-11-21T02:44:55;99115.59;;;11.06;83.35
78584;BME280;67880;46.082;18.234;2023-11-21T02:45:28;99114.78;;;11.06;83.52
78584;BME280;67880;46.082;18.234;2023-11-21T02:46:00;99117.44;;;11.06;84.09
78584;BME280;67880;46.082;18.234;2023-11-21T02:46:36;99114.94;;;11.04;84.01
78584;BME280;67880;46.082;18.234;2023-11-21T02:47:08;99106.41;;;11.01;83.65
78584;BME280;67880;46.082;18.234;2023-11-21T02:47:40;99115.31;;;11.01;83.48
78584;BME280;67880;46.082;18.234;2023-11-21T02:48:13;99113.47;;;10.94;84.00
78584;BME280;67880;46.082;18.234;2023-11-21T02:48:45;99117.31;;;10.99;84.06
78584;BME280;67880;46.082;18.234;2023-11-21T02:49:17;99114.63;;;10.99;84.29
78584;BME280;67880;46.082;18.234;2023-11-21T02:49:50;99120.38;;;10.96;84.71
78584;BME280;67880;46.082;18.234;2023-11-21T02:50:24;99120.38;;;10.96;84.95
78584;BME280;67880;46.082;18.234;2023-11-21T02:50:56;99110.97;;;10.92;84.90
78584;BME280;67880;46.082;18.234;2023-11-21T02:51:28;99113.34;;;10.95;84.65